N104ZM YMML-YBDG
Flight info
| Callsign | N104ZM |
|---|---|
| Flight time | 0h 17m |
| Altitude | 9000 |
| Route | YMML/34 N0263F100 DCT KTN DCT YBDG/35 |
| Aircraft | B350/L-B350/L |
Departure
| Time | 2026-04-23 03:38 |
|---|---|
| Airport | Melbourne Airport (YMML) |
Arrival
| Time | 2026-04-23 03:55 |
|---|---|
| Airport | Bendigo Airport (YBDG) |
| Time | Latitude | Longitude | Altitude | Speed | Heading |
|---|---|---|---|---|---|
| 2026-04-23 03:22 | -37.67796 | 144.84709 | 366 ft | 0 kts | 133° |
| 2026-04-23 03:28 | -37.67785 | 144.84694 | 366 ft | 2 kts | 131° |
| 2026-04-23 03:28 | -37.67776 | 144.84684 | 367 ft | 0 kts | 156° |
| 2026-04-23 03:29 | -37.67781 | 144.84687 | 366 ft | 0 kts | 159° |
| 2026-04-23 03:29 | -37.67777 | 144.84685 | 366 ft | 2 kts | 159° |
| 2026-04-23 03:29 | -37.67762 | 144.84680 | 367 ft | 2 kts | 173° |
| 2026-04-23 03:30 | -37.67746 | 144.84683 | 368 ft | 2 kts | 211° |
| 2026-04-23 03:30 | -37.67738 | 144.84698 | 368 ft | 1 kts | 252° |
| 2026-04-23 03:30 | -37.67737 | 144.84700 | 368 ft | 0 kts | 256° |
| 2026-04-23 03:33 | -37.67743 | 144.84666 | 367 ft | 10 kts | 258° |
| 2026-04-23 03:33 | -37.67776 | 144.84604 | 365 ft | 11 kts | 205° |
| 2026-04-23 03:34 | -37.67828 | 144.84482 | 366 ft | 21 kts | 263° |
| 2026-04-23 03:34 | -37.67847 | 144.84337 | 360 ft | 10 kts | 261° |
| 2026-04-23 03:34 | -37.67858 | 144.84246 | 364 ft | 0 kts | 261° |
| 2026-04-23 03:34 | -37.67858 | 144.84245 | 364 ft | 0 kts | 261° |
| 2026-04-23 03:35 | -37.67859 | 144.84234 | 363 ft | 0 kts | 263° |
| 2026-04-23 03:35 | -37.67861 | 144.84205 | 359 ft | 9 kts | 261° |
| 2026-04-23 03:35 | -37.67872 | 144.84119 | 360 ft | 5 kts | 261° |
| 2026-04-23 03:35 | -37.67874 | 144.84109 | 361 ft | 1 kts | 261° |
| 2026-04-23 03:36 | -37.67875 | 144.84097 | 358 ft | 0 kts | 262° |
| 2026-04-23 03:37 | -37.67833 | 144.83978 | 362 ft | 27 kts | 326° |
| 2026-04-23 03:37 | -37.67760 | 144.83946 | 362 ft | 0 kts | 352° |
| 2026-04-23 03:37 | -37.67759 | 144.83946 | 362 ft | 3 kts | 352° |
| 2026-04-23 03:37 | -37.67350 | 144.83870 | 379 ft | 109 kts | 352° |
| 2026-04-23 03:38 | -37.66436 | 144.83664 | 665 ft | 154 kts | 350° |
| 2026-04-23 03:38 | -37.65311 | 144.83402 | 1184 ft | 170 kts | 351° |
| 2026-04-23 03:38 | -37.64129 | 144.83194 | 1891 ft | 172 kts | 355° |
| 2026-04-23 03:38 | -37.62924 | 144.83035 | 2555 ft | 177 kts | 355° |
| 2026-04-23 03:39 | -37.61657 | 144.82904 | 3076 ft | 189 kts | 358° |
| 2026-04-23 03:39 | -37.60338 | 144.82788 | 3691 ft | 189 kts | 353° |
| 2026-04-23 03:39 | -37.59104 | 144.82158 | 4140 ft | 201 kts | 327° |
| 2026-04-23 03:39 | -37.57981 | 144.81001 | 4413 ft | 215 kts | 317° |
| 2026-04-23 03:40 | -37.56873 | 144.79654 | 4428 ft | 234 kts | 315° |
| 2026-04-23 03:40 | -37.55685 | 144.78114 | 4335 ft | 247 kts | 316° |
| 2026-04-23 03:40 | -37.54481 | 144.76631 | 4624 ft | 242 kts | 317° |
| 2026-04-23 03:40 | -37.53279 | 144.75167 | 4926 ft | 239 kts | 317° |
| 2026-04-23 03:41 | -37.52085 | 144.73721 | 5223 ft | 238 kts | 317° |
| 2026-04-23 03:41 | -37.50896 | 144.72280 | 5518 ft | 237 kts | 317° |
| 2026-04-23 03:41 | -37.49638 | 144.70951 | 5826 ft | 236 kts | 326° |
| 2026-04-23 03:41 | -37.48285 | 144.69783 | 6120 ft | 236 kts | 324° |
| 2026-04-23 03:42 | -37.46994 | 144.68500 | 6411 ft | 237 kts | 321° |
| 2026-04-23 03:42 | -37.45724 | 144.67174 | 6708 ft | 237 kts | 321° |
| 2026-04-23 03:42 | -37.44444 | 144.65869 | 7003 ft | 237 kts | 322° |
| 2026-04-23 03:42 | -37.43155 | 144.64565 | 7302 ft | 238 kts | 322° |
| 2026-04-23 03:43 | -37.41865 | 144.63259 | 7598 ft | 238 kts | 322° |
| 2026-04-23 03:43 | -37.40573 | 144.61947 | 7893 ft | 239 kts | 322° |
| 2026-04-23 03:43 | -37.39277 | 144.60641 | 7995 ft | 247 kts | 322° |
| 2026-04-23 03:43 | -37.37915 | 144.59270 | 7994 ft | 255 kts | 322° |
| 2026-04-23 03:44 | -37.36517 | 144.57860 | 7994 ft | 259 kts | 322° |
| 2026-04-23 03:44 | -37.35101 | 144.56427 | 7993 ft | 262 kts | 322° |
| 2026-04-23 03:44 | -37.33673 | 144.54984 | 7993 ft | 264 kts | 322° |
| 2026-04-23 03:44 | -37.32239 | 144.53534 | 7993 ft | 265 kts | 322° |
| 2026-04-23 03:45 | -37.30799 | 144.52080 | 7995 ft | 266 kts | 322° |
| 2026-04-23 03:45 | -37.29356 | 144.50627 | 7994 ft | 266 kts | 322° |
| 2026-04-23 03:45 | -37.27863 | 144.49270 | 8013 ft | 265 kts | 334° |
| 2026-04-23 03:45 | -37.26124 | 144.48499 | 8012 ft | 265 kts | 345° |
| 2026-04-23 03:46 | -37.24345 | 144.47860 | 8005 ft | 266 kts | 343° |
| 2026-04-23 03:46 | -37.22617 | 144.47030 | 7994 ft | 266 kts | 338° |
| 2026-04-23 03:46 | -37.21490 | 144.46425 | 7995 ft | 266 kts | 338° |
| 2026-04-23 03:46 | -37.19204 | 144.45290 | 7994 ft | 266 kts | 340° |
| 2026-04-23 03:47 | -37.17476 | 144.44452 | 7993 ft | 266 kts | 339° |
| 2026-04-23 03:47 | -37.15753 | 144.43607 | 8004 ft | 258 kts | 340° |
| 2026-04-23 03:47 | -37.14128 | 144.42832 | 7843 ft | 247 kts | 339° |
| 2026-04-23 03:47 | -37.13075 | 144.42294 | 7686 ft | 243 kts | 339° |
| 2026-04-23 03:48 | -37.11530 | 144.41510 | 7446 ft | 236 kts | 339° |
| 2026-04-23 03:48 | -37.10017 | 144.40763 | 7203 ft | 231 kts | 340° |
| 2026-04-23 03:48 | -37.08526 | 144.40035 | 6958 ft | 229 kts | 340° |
| 2026-04-23 03:48 | -37.07045 | 144.39311 | 6710 ft | 227 kts | 340° |
| 2026-04-23 03:49 | -37.05577 | 144.38591 | 6461 ft | 226 kts | 340° |
| 2026-04-23 03:49 | -37.04114 | 144.37874 | 6212 ft | 225 kts | 340° |
| 2026-04-23 03:49 | -37.02658 | 144.37160 | 5963 ft | 225 kts | 340° |
| 2026-04-23 03:49 | -37.01205 | 144.36446 | 5712 ft | 224 kts | 339° |
| 2026-04-23 03:50 | -36.99754 | 144.35732 | 5462 ft | 224 kts | 340° |
| 2026-04-23 03:50 | -36.98306 | 144.35020 | 5211 ft | 223 kts | 339° |
| 2026-04-23 03:50 | -36.96862 | 144.34310 | 4958 ft | 223 kts | 339° |
| 2026-04-23 03:50 | -36.95422 | 144.33602 | 4707 ft | 222 kts | 340° |
| 2026-04-23 03:51 | -36.93973 | 144.32892 | 4339 ft | 225 kts | 340° |
| 2026-04-23 03:51 | -36.92534 | 144.32198 | 4013 ft | 219 kts | 340° |
| 2026-04-23 03:51 | -36.91188 | 144.31542 | 4003 ft | 200 kts | 340° |
| 2026-04-23 03:51 | -36.89897 | 144.31202 | 4017 ft | 185 kts | 8° |
| 2026-04-23 03:52 | -36.88731 | 144.31805 | 3798 ft | 186 kts | 29° |
| 2026-04-23 03:52 | -36.87480 | 144.32431 | 3294 ft | 200 kts | 14° |
| 2026-04-23 03:52 | -36.86076 | 144.32610 | 2798 ft | 206 kts | 2° |
| 2026-04-23 03:52 | -36.84644 | 144.32620 | 2465 ft | 203 kts | 2° |
| 2026-04-23 03:53 | -36.83249 | 144.32684 | 2188 ft | 198 kts | 4° |
| 2026-04-23 03:53 | -36.81883 | 144.32723 | 2007 ft | 191 kts | 2° |
| 2026-04-23 03:53 | -36.80598 | 144.32761 | 1996 ft | 179 kts | 3° |
| 2026-04-23 03:53 | -36.79350 | 144.32813 | 1801 ft | 181 kts | 3° |
| 2026-04-23 03:54 | -36.78174 | 144.32863 | 1585 ft | 152 kts | 3° |
| 2026-04-23 03:54 | -36.77218 | 144.32881 | 1336 ft | 125 kts | 1° |
| 2026-04-23 03:54 | -36.76348 | 144.32891 | 1173 ft | 133 kts | 1° |
| 2026-04-23 03:54 | -36.75488 | 144.32937 | 1013 ft | 121 kts | 5° |
| 2026-04-23 03:55 | -36.74663 | 144.32977 | 849 ft | 114 kts | 2° |
| 2026-04-23 03:55 | -36.73875 | 144.33000 | 723 ft | 104 kts | 1° |
| 2026-04-23 03:55 | -36.73245 | 144.33030 | 695 ft | 57 kts | 1° |
| 2026-04-23 03:55 | -36.73006 | 144.33038 | 694 ft | 22 kts | 2° |
| 2026-04-23 03:56 | -36.72901 | 144.33045 | 693 ft | 13 kts | 6° |